createdAt,value
2022-12-27T00:04:12.013Z,38.72
2022-12-27T00:09:11.163Z,40.15
2022-12-27T00:14:10.021Z,42.97
2022-12-27T00:19:10.324Z,39.60
2022-12-27T00:24:09.146Z,38.42
2022-12-27T00:29:07.990Z,40.97
2022-12-27T00:34:07.988Z,36.30
2022-12-27T00:39:08.172Z,30.08
2022-12-27T00:44:07.093Z,33.65
2022-12-27T00:49:06.006Z,33.30
2022-12-27T00:54:04.894Z,29.92
2022-12-27T00:59:06.909Z,31.85
2022-12-27T01:04:06.343Z,27.75
2022-12-27T01:09:05.705Z,32.92
2022-12-27T01:14:07.042Z,30.30
2022-12-27T01:19:05.728Z,30.13
2022-12-27T01:24:06.572Z,30.95
2022-12-27T01:29:05.354Z,27.30
2022-12-27T01:34:05.581Z,28.52
2022-12-27T01:39:05.018Z,28.83
2022-12-27T01:44:23.816Z,32.75
2022-12-27T01:49:24.253Z,27.42
2022-12-27T01:54:23.035Z,27.63
2022-12-27T01:59:21.911Z,22.80
2022-12-27T02:04:25.439Z,24.65
2022-12-27T02:09:30.278Z,21.30
2022-12-27T02:14:32.469Z,28.05
2022-12-27T02:19:49.844Z,44.72
2022-12-27T02:25:11.605Z,21.27
2022-12-27T02:30:13.474Z,21.27
2022-12-27T02:35:16.034Z,16.90
2022-12-27T02:40:35.173Z,18.58
2022-12-27T02:46:00.283Z,27.33
2022-12-27T02:51:24.564Z,20.50
2022-12-27T02:56:54.220Z,35.70
2022-12-27T03:02:24.379Z,23.73
2022-12-27T03:07:33.098Z,34.38
2022-12-27T03:13:02.913Z,32.65
2022-12-27T03:18:11.268Z,25.90
2022-12-27T03:23:28.674Z,24.37
2022-12-27T03:28:47.990Z,27.48
2022-12-27T03:33:50.067Z,22.33
2022-12-27T03:38:56.505Z,29.60
2022-12-27T03:43:55.333Z,21.55
2022-12-27T03:49:05.698Z,22.60
2022-12-27T03:54:10.290Z,24.98
2022-12-27T03:59:10.120Z,23.20
2022-12-27T04:04:10.196Z,22.80
2022-12-27T04:09:28.543Z,21.83
2022-12-27T04:14:46.424Z,24.15
2022-12-27T04:20:03.919Z,25.33
2022-12-27T04:25:22.078Z,26.77
2022-12-27T04:30:39.831Z,24.08
2022-12-27T04:35:40.006Z,22.00
2022-12-27T04:40:56.469Z,22.88
2022-12-27T04:46:13.353Z,20.75
2022-12-27T04:51:27.464Z,22.00
2022-12-27T04:56:26.283Z,21.30
2022-12-27T05:01:42.659Z,20.10
2022-12-27T05:06:42.824Z,21.70
2022-12-27T05:11:59.879Z,19.42
2022-12-27T05:16:58.762Z,22.15
2022-12-27T05:22:20.881Z,22.20
2022-12-27T05:27:20.199Z,51.80
2022-12-27T05:32:18.959Z,25.27
2022-12-27T05:37:19.095Z,28.58
2022-12-27T05:42:17.955Z,26.48
2022-12-27T05:47:16.737Z,28.45
2022-12-27T05:52:15.459Z,36.75
2022-12-27T05:57:15.613Z,33.67
2022-12-27T06:02:14.569Z,35.92
2022-12-27T06:07:13.825Z,38.35
2022-12-27T06:12:12.618Z,27.90
2022-12-27T06:17:12.750Z,31.45
2022-12-27T06:22:11.511Z,35.78
2022-12-27T06:27:10.369Z,33.85
2022-12-27T06:32:09.301Z,28.95
2022-12-27T06:37:09.822Z,36.95
2022-12-27T06:42:08.997Z,34.65
2022-12-27T06:47:07.896Z,27.00
2022-12-27T06:52:07.208Z,37.53
2022-12-27T06:57:07.455Z,43.08
2022-12-27T07:02:06.420Z,83.30
2022-12-27T07:07:06.367Z,50.50
2022-12-27T07:12:09.768Z,44.60
2022-12-27T07:17:19.039Z,44.45
2022-12-27T07:22:35.451Z,39.58
2022-12-27T07:27:42.690Z,43.65
2022-12-27T07:33:08.102Z,60.72
2022-12-27T07:38:25.237Z,38.00
2022-12-27T07:44:02.419Z,34.50
2022-12-27T07:49:12.321Z,29.35
2022-12-27T07:59:15.835Z,25.55
2022-12-27T08:04:14.753Z,24.13
2022-12-27T08:09:16.889Z,26.77
2022-12-27T08:14:17.175Z,26.45
2022-12-27T08:19:15.974Z,30.00
2022-12-27T08:24:14.879Z,24.02
2022-12-27T08:29:13.815Z,26.15
2022-12-27T08:34:14.124Z,24.30
2022-12-27T08:39:13.336Z,19.95
2022-12-27T08:44:13.193Z,18.48
2022-12-27T08:49:13.564Z,17.98
2022-12-27T08:54:12.663Z,17.20
2022-12-27T08:59:11.472Z,17.35
2022-12-27T09:04:10.224Z,17.25
2022-12-27T09:09:10.468Z,19.73
2022-12-27T09:14:09.272Z,22.85
2022-12-27T09:19:08.083Z,19.23
2022-12-27T09:24:07.681Z,19.17
2022-12-27T09:29:08.064Z,20.73
2022-12-27T09:34:06.846Z,19.80
2022-12-27T09:39:06.077Z,21.98
2022-12-27T09:44:08.740Z,16.05
2022-12-27T09:49:11.969Z,20.02
2022-12-27T09:54:15.897Z,19.70
2022-12-27T09:59:21.591Z,20.60
2022-12-27T10:04:22.353Z,13.77
2022-12-27T10:09:34.796Z,14.18
2022-12-27T10:14:52.287Z,12.97
2022-12-27T10:19:59.093Z,11.23
2022-12-27T10:25:02.000Z,11.43
2022-12-27T10:30:04.884Z,12.35
2022-12-27T10:35:05.427Z,14.05
2022-12-27T10:40:11.609Z,20.52
2022-12-27T10:45:37.115Z,19.95
2022-12-27T10:50:36.228Z,18.77
2022-12-27T10:55:37.603Z,16.80
2022-12-27T11:00:40.438Z,14.55
2022-12-27T11:05:40.880Z,14.60
2022-12-27T11:10:39.645Z,12.93
2022-12-27T11:15:43.298Z,17.17
2022-12-27T11:20:47.741Z,13.65
2022-12-27T11:25:54.572Z,11.73
2022-12-27T11:30:58.902Z,13.65
2022-12-27T11:36:00.762Z,12.02
2022-12-27T11:41:04.124Z,13.20
2022-12-27T11:46:07.140Z,15.00
2022-12-27T11:51:30.157Z,14.27
2022-12-27T11:56:29.749Z,16.70
2022-12-27T12:02:04.820Z,18.42
2022-12-27T12:07:15.154Z,14.48
2022-12-27T12:12:45.916Z,14.50
2022-12-27T12:18:02.080Z,12.68
2022-12-27T12:23:12.065Z,14.43
2022-12-27T12:28:58.822Z,15.50
2022-12-27T12:34:11.235Z,13.73
2022-12-27T12:39:23.367Z,18.25
2022-12-27T12:45:07.279Z,15.27
2022-12-27T12:50:22.088Z,18.02
2022-12-27T12:55:38.121Z,15.48
2022-12-27T13:00:53.173Z,14.73
2022-12-27T13:06:00.106Z,16.27
2022-12-27T13:11:16.211Z,16.17
2022-12-27T13:16:25.538Z,16.45
2022-12-27T13:21:39.211Z,16.08
2022-12-27T13:26:48.943Z,15.32
2022-12-27T13:32:00.430Z,18.55
2022-12-27T13:37:12.659Z,15.73
2022-12-27T13:42:44.596Z,15.73
2022-12-27T13:48:06.128Z,14.98
2022-12-27T13:53:22.960Z,18.75
2022-12-27T13:58:54.789Z,13.93
2022-12-27T14:04:13.983Z,13.95
2022-12-27T14:09:56.786Z,16.80
2022-12-27T14:14:58.734Z,15.40
2022-12-27T14:20:18.133Z,19.73
2022-12-27T14:25:58.981Z,17.35
2022-12-27T14:31:35.196Z,20.05
2022-12-27T14:37:00.481Z,15.20
2022-12-27T14:42:42.895Z,15.55
2022-12-27T14:48:04.145Z,17.10
2022-12-27T14:53:44.300Z,16.42
2022-12-27T14:58:53.903Z,16.88
2022-12-27T15:04:05.803Z,14.75
2022-12-27T15:09:14.561Z,16.95
2022-12-27T15:14:33.595Z,16.92
2022-12-27T15:19:50.460Z,17.50
2022-12-27T15:24:57.654Z,12.82
2022-12-27T15:30:18.723Z,14.27
2022-12-27T15:35:35.460Z,13.77
2022-12-27T15:41:07.535Z,13.45
2022-12-27T15:46:19.277Z,12.73
2022-12-27T15:51:30.363Z,11.48
2022-12-27T15:56:42.188Z,14.45
2022-12-27T16:01:41.309Z,14.10
2022-12-27T16:06:51.883Z,14.35
2022-12-27T16:12:09.520Z,17.88
2022-12-27T16:17:40.792Z,19.38
2022-12-27T16:22:44.722Z,25.38
2022-12-27T16:27:44.612Z,30.00
2022-12-27T16:32:50.213Z,21.40
2022-12-27T16:37:57.260Z,20.30
2022-12-27T16:43:38.103Z,18.00
2022-12-27T16:48:53.670Z,20.83
2022-12-27T16:54:05.786Z,15.65
2022-12-27T16:59:04.971Z,14.90
2022-12-27T17:04:04.788Z,12.02
2022-12-27T17:09:40.929Z,14.57
2022-12-27T17:14:46.691Z,16.77
2022-12-27T17:19:53.061Z,11.70
2022-12-27T17:24:58.059Z,11.02
2022-12-27T17:30:07.606Z,12.57
2022-12-27T17:35:16.605Z,13.60
2022-12-27T17:40:30.228Z,18.20
2022-12-27T17:45:44.668Z,11.98
2022-12-27T17:50:45.610Z,14.90
2022-12-27T17:56:05.306Z,21.27
2022-12-27T18:01:05.693Z,15.02
2022-12-27T18:06:05.116Z,14.13
2022-12-27T18:11:06.939Z,13.95
2022-12-27T18:16:16.751Z,10.32
2022-12-27T18:21:23.948Z,11.77
2022-12-27T18:26:32.967Z,13.45
2022-12-27T18:31:38.197Z,12.55
2022-12-27T18:36:43.205Z,10.30
2022-12-27T18:41:47.940Z,11.32
2022-12-27T18:46:51.357Z,10.27
2022-12-27T18:56:55.376Z,8.55
2022-12-27T19:01:57.515Z,15.35
2022-12-27T19:07:09.084Z,10.15
2022-12-27T19:12:20.514Z,16.58
2022-12-27T19:17:24.819Z,14.52
2022-12-27T19:22:42.411Z,17.10
2022-12-27T19:27:41.230Z,18.85
2022-12-27T19:32:41.999Z,18.33
2022-12-27T19:37:40.755Z,14.60
2022-12-27T19:42:41.035Z,17.67
2022-12-27T19:47:41.243Z,11.90
2022-12-27T19:52:41.296Z,10.60
2022-12-27T19:57:40.729Z,9.73
2022-12-27T20:02:41.885Z,14.82
2022-12-27T20:07:41.426Z,14.38
2022-12-27T20:12:40.174Z,12.75
2022-12-27T20:17:44.611Z,10.02
2022-12-27T20:22:45.217Z,10.80
2022-12-27T20:27:44.727Z,11.35
2022-12-27T20:32:44.643Z,12.55
2022-12-27T20:37:46.622Z,11.10
2022-12-27T20:42:52.962Z,9.60
2022-12-27T20:47:53.506Z,9.90
2022-12-27T20:52:54.204Z,8.63
2022-12-27T20:57:53.385Z,11.20
2022-12-27T21:02:52.357Z,9.43
2022-12-27T21:07:51.509Z,6.93
2022-12-27T21:12:51.752Z,9.25
2022-12-27T21:17:50.532Z,10.07
2022-12-27T21:22:49.434Z,8.30
2022-12-27T21:27:48.907Z,7.93
2022-12-27T21:32:49.073Z,8.52
2022-12-27T21:37:47.800Z,11.23
2022-12-27T21:42:47.788Z,11.23
2022-12-27T21:47:46.531Z,10.60
2022-12-27T21:52:46.771Z,11.95
2022-12-27T21:57:57.026Z,9.65
2022-12-27T22:02:56.291Z,12.95
2022-12-27T22:07:59.860Z,10.65
2022-12-27T22:12:58.621Z,11.52
2022-12-27T22:17:57.456Z,11.68
2022-12-27T22:22:57.737Z,10.98
2022-12-27T22:27:56.578Z,9.30
2022-12-27T22:32:55.868Z,50.50
2022-12-27T22:37:54.655Z,60.28
2022-12-27T22:42:56.470Z,14.75
2022-12-27T22:47:55.509Z,13.77
2022-12-27T22:52:54.271Z,18.77
2022-12-27T22:57:54.487Z,10.82
2022-12-27T23:02:53.277Z,12.68
2022-12-27T23:08:05.388Z,10.90
2022-12-27T23:13:07.223Z,11.25
2022-12-27T23:18:06.507Z,17.25
2022-12-27T23:23:05.811Z,11.02
2022-12-27T23:28:06.418Z,15.23
2022-12-27T23:33:05.529Z,18.05
2022-12-27T23:38:05.016Z,14.82
2022-12-27T23:43:33.245Z,11.88
2022-12-27T23:48:24.209Z,14.45
2022-12-27T23:53:22.932Z,12.70
2022-12-27T23:58:21.728Z,12.98
